createdAt,value
2022-09-04T00:01:48.302Z,0.80
2022-09-04T00:04:21.211Z,0.80
2022-09-04T00:06:53.353Z,0.80
2022-09-04T00:09:23.306Z,0.80
2022-09-04T00:11:54.267Z,0.80
2022-09-04T00:14:37.075Z,0.85
2022-09-04T00:17:07.855Z,0.80
2022-09-04T00:19:37.119Z,0.80
2022-09-04T00:22:06.706Z,0.80
2022-09-04T00:24:37.767Z,0.90
2022-09-04T00:27:08.903Z,0.90
2022-09-04T00:29:42.048Z,0.65
2022-09-04T00:32:15.267Z,0.85
2022-09-04T00:34:53.479Z,0.85
2022-09-04T00:37:22.231Z,0.60
2022-09-04T00:39:53.174Z,0.85
2022-09-04T00:42:29.255Z,0.82
2022-09-04T00:45:06.933Z,0.73
2022-09-04T00:48:11.224Z,0.80
2022-09-04T00:50:55.491Z,0.88
2022-09-04T00:53:31.180Z,0.90
2022-09-04T00:56:06.268Z,0.60
2022-09-04T00:58:48.688Z,0.90
2022-09-04T01:01:20.398Z,0.73
2022-09-04T01:04:03.672Z,0.73
2022-09-04T01:06:36.475Z,0.80
2022-09-04T01:09:30.343Z,0.73
2022-09-04T01:12:06.094Z,0.73
2022-09-04T01:14:40.128Z,0.60
2022-09-04T01:17:13.441Z,0.90
2022-09-04T01:19:49.992Z,0.80
2022-09-04T01:22:27.514Z,0.93
2022-09-04T01:25:05.600Z,0.60
2022-09-04T01:27:37.998Z,0.57
2022-09-04T01:30:08.022Z,0.75
2022-09-04T01:32:45.383Z,0.80
2022-09-04T01:35:18.732Z,0.70
2022-09-04T01:38:00.154Z,0.73
2022-09-04T01:40:35.874Z,0.70
2022-09-04T01:43:07.539Z,0.80
2022-09-04T01:45:43.982Z,0.80
2022-09-04T01:48:12.572Z,0.75
2022-09-04T01:50:40.284Z,0.80
2022-09-04T01:53:11.299Z,0.90
2022-09-04T01:55:44.706Z,0.73
2022-09-04T01:58:18.046Z,0.82
2022-09-04T02:00:50.383Z,0.70
2022-09-04T02:03:24.468Z,0.90
2022-09-04T02:06:00.377Z,0.80
2022-09-04T02:08:36.262Z,0.80
2022-09-04T02:11:06.471Z,0.60
2022-09-04T02:13:45.239Z,0.80
2022-09-04T02:16:15.934Z,0.70
2022-09-04T02:18:48.697Z,0.57
2022-09-04T02:21:24.057Z,0.80
2022-09-04T02:23:57.250Z,1.00
2022-09-04T02:26:27.097Z,0.75
2022-09-04T02:28:58.333Z,0.80
2022-09-04T02:31:31.196Z,0.70
2022-09-04T02:34:02.177Z,0.70
2022-09-04T02:36:31.909Z,0.70
2022-09-04T02:39:02.307Z,0.80
2022-09-04T02:41:33.083Z,0.70
2022-09-04T02:44:11.742Z,0.60
2022-09-04T02:46:46.037Z,0.85
2022-09-04T02:49:15.985Z,0.70
2022-09-04T02:51:50.851Z,0.80
2022-09-04T02:54:25.748Z,0.82
2022-09-04T02:56:58.543Z,0.70
2022-09-04T02:59:34.164Z,0.70
2022-09-04T03:02:02.677Z,0.70
2022-09-04T03:04:33.380Z,0.70
2022-09-04T03:07:04.109Z,0.90
2022-09-04T03:09:33.854Z,0.63
2022-09-04T03:12:15.051Z,0.70
2022-09-04T03:14:45.640Z,0.75
2022-09-04T03:17:16.389Z,0.60
2022-09-04T03:19:47.439Z,0.80
2022-09-04T03:22:19.327Z,0.68
2022-09-04T03:25:01.976Z,0.63
2022-09-04T03:27:31.439Z,0.70
2022-09-04T03:30:03.977Z,0.63
2022-09-04T03:32:36.039Z,0.85
2022-09-04T03:35:05.907Z,0.68
2022-09-04T03:37:40.667Z,0.70
2022-09-04T03:40:14.922Z,0.85
2022-09-04T03:42:50.337Z,0.70
2022-09-04T03:45:22.747Z,0.60
2022-09-04T03:48:00.703Z,0.63
2022-09-04T03:50:31.154Z,0.70
2022-09-04T03:53:01.468Z,0.70
2022-09-04T03:55:52.939Z,0.60
2022-09-04T03:58:22.388Z,0.80
2022-09-04T04:00:57.093Z,0.60
2022-09-04T04:03:34.823Z,0.80
2022-09-04T04:06:08.479Z,0.88
2022-09-04T04:08:47.503Z,0.70
2022-09-04T04:11:23.108Z,0.70
2022-09-04T04:14:06.194Z,0.68
2022-09-04T04:16:43.270Z,0.70
2022-09-04T04:19:26.808Z,0.80
2022-09-04T04:22:04.267Z,0.68
2022-09-04T04:24:43.235Z,0.80
2022-09-04T04:27:21.771Z,0.80
2022-09-04T04:30:01.800Z,0.80
2022-09-04T04:32:59.585Z,0.70
2022-09-04T04:35:30.303Z,0.70
2022-09-04T04:38:08.204Z,0.70
2022-09-04T04:40:54.019Z,0.90
2022-09-04T04:43:24.851Z,0.80
2022-09-04T04:45:54.852Z,0.75
2022-09-04T04:49:01.169Z,0.60
2022-09-04T04:51:50.165Z,0.70
2022-09-04T04:54:27.334Z,0.80
2022-09-04T04:56:58.250Z,0.50
2022-09-04T04:59:27.850Z,0.75
2022-09-04T05:02:03.444Z,0.70
2022-09-04T05:04:42.532Z,0.70
2022-09-04T05:07:14.168Z,0.70
2022-09-04T05:09:45.705Z,0.60
2022-09-04T05:12:17.514Z,0.63
2022-09-04T05:14:49.559Z,0.80
2022-09-04T05:17:27.635Z,0.60
2022-09-04T05:20:15.969Z,0.73
2022-09-04T05:22:45.346Z,0.80
2022-09-04T05:25:15.353Z,0.70
2022-09-04T05:27:49.209Z,0.73
2022-09-04T05:30:18.856Z,0.60
2022-09-04T05:32:52.988Z,0.70
2022-09-04T05:35:26.468Z,0.80
2022-09-04T05:38:06.015Z,0.60
2022-09-04T05:40:38.524Z,0.70
2022-09-04T05:43:13.183Z,0.70
2022-09-04T05:45:50.359Z,0.70
2022-09-04T05:48:22.549Z,0.60
2022-09-04T05:51:06.178Z,0.70
2022-09-04T05:53:42.905Z,0.70
2022-09-04T05:56:49.676Z,0.70
2022-09-04T05:59:42.529Z,0.80
2022-09-04T06:02:41.278Z,0.70
2022-09-04T06:05:23.312Z,0.60
2022-09-04T06:08:00.004Z,0.60
2022-09-04T06:10:32.076Z,0.77
2022-09-04T06:13:22.361Z,0.70
2022-09-04T06:15:55.219Z,0.60
2022-09-04T06:18:44.934Z,0.60
2022-09-04T06:21:38.795Z,0.70
2022-09-04T06:24:16.398Z,0.80
2022-09-04T06:26:55.395Z,0.70
2022-09-04T06:29:34.238Z,1.00
2022-09-04T06:32:18.231Z,0.60
2022-09-04T06:35:06.140Z,0.60
2022-09-04T06:37:38.145Z,0.75
2022-09-04T06:40:13.999Z,0.50
2022-09-04T06:42:53.184Z,0.80
2022-09-04T06:45:24.245Z,0.55
2022-09-04T06:48:04.423Z,1.00
2022-09-04T06:50:34.462Z,0.63
2022-09-04T06:53:08.659Z,0.70
2022-09-04T06:55:44.431Z,0.60
2022-09-04T06:58:23.461Z,0.80
2022-09-04T07:00:54.100Z,0.77
2022-09-04T07:03:28.249Z,0.77
2022-09-04T07:05:59.507Z,0.70
2022-09-04T07:08:33.821Z,0.80
2022-09-04T07:11:13.875Z,0.70
2022-09-04T07:13:51.881Z,0.60
2022-09-04T07:16:35.951Z,0.80
2022-09-04T07:19:43.455Z,0.70
2022-09-04T07:22:32.189Z,0.88
2022-09-04T07:25:05.785Z,0.80
2022-09-04T07:27:42.039Z,0.70
2022-09-04T07:30:10.531Z,0.70
2022-09-04T07:32:41.305Z,0.80
2022-09-04T07:35:11.767Z,0.63
2022-09-04T07:37:41.665Z,0.70
2022-09-04T07:40:11.372Z,0.70
2022-09-04T07:42:43.177Z,0.88
2022-09-04T07:45:16.505Z,0.70
2022-09-04T07:47:45.187Z,0.70
2022-09-04T07:50:15.646Z,0.80
2022-09-04T07:52:55.062Z,0.80
2022-09-04T07:55:26.239Z,0.80
2022-09-04T07:58:08.884Z,0.90
2022-09-04T08:00:42.427Z,0.65
2022-09-04T08:03:20.792Z,0.70
2022-09-04T08:05:49.771Z,0.80
2022-09-04T08:08:50.076Z,0.80
2022-09-04T08:11:35.006Z,0.80
2022-09-04T08:14:20.495Z,0.80
2022-09-04T08:16:53.370Z,0.75
2022-09-04T08:19:28.232Z,0.70
2022-09-04T08:21:57.025Z,1.00
2022-09-04T08:24:50.055Z,1.38
2022-09-04T08:27:24.340Z,1.75
2022-09-04T08:30:04.061Z,2.35
2022-09-04T08:32:48.750Z,3.58
2022-09-04T08:35:22.108Z,5.28
2022-09-04T08:38:08.236Z,6.78
2022-09-04T08:41:06.783Z,7.18
2022-09-04T08:43:39.766Z,6.53
2022-09-04T08:46:39.058Z,6.22
2022-09-04T08:49:43.383Z,6.07
2022-09-04T08:52:31.892Z,6.45
2022-09-04T08:55:30.339Z,4.97
2022-09-04T08:58:26.173Z,4.68
2022-09-04T09:01:19.291Z,4.00
2022-09-04T09:04:08.115Z,3.80
2022-09-04T09:06:52.097Z,3.53
2022-09-04T09:09:59.545Z,3.60
2022-09-04T09:12:54.047Z,3.33
2022-09-04T09:16:19.052Z,2.90
2022-09-04T09:19:04.263Z,3.03
2022-09-04T09:21:38.500Z,3.03
2022-09-04T09:24:34.708Z,2.75
2022-09-04T09:27:09.782Z,3.22
2022-09-04T09:29:49.631Z,3.08
2022-09-04T09:32:47.877Z,3.17
2022-09-04T09:35:55.933Z,2.95
2022-09-04T09:38:57.313Z,2.67
2022-09-04T09:41:45.236Z,3.13
2022-09-04T09:44:42.639Z,2.58
2022-09-04T09:47:38.630Z,2.40
2022-09-04T09:50:18.424Z,2.50
2022-09-04T09:53:01.516Z,2.17
2022-09-04T09:55:49.841Z,2.30
2022-09-04T09:58:30.677Z,2.40
2022-09-04T10:01:08.296Z,2.50
2022-09-04T10:04:11.664Z,2.50
2022-09-04T10:07:02.997Z,2.25
2022-09-04T10:10:02.421Z,2.08
2022-09-04T10:13:02.727Z,2.38
2022-09-04T10:15:46.152Z,2.17
2022-09-04T10:18:57.122Z,2.10
2022-09-04T10:21:51.660Z,2.25
2022-09-04T10:24:50.583Z,2.00
2022-09-04T10:27:32.360Z,2.45
2022-09-04T10:30:08.435Z,2.13
2022-09-04T10:32:47.287Z,2.00
2022-09-04T10:35:25.121Z,2.10
2022-09-04T10:38:22.274Z,2.40
2022-09-04T10:41:20.556Z,2.22
2022-09-04T10:44:07.912Z,1.90
2022-09-04T10:46:37.651Z,2.78
2022-09-04T10:49:20.439Z,2.10
2022-09-04T10:52:21.694Z,2.40
2022-09-04T10:55:19.285Z,2.17
2022-09-04T10:57:56.892Z,2.22
2022-09-04T11:00:28.805Z,2.33
2022-09-04T11:03:22.190Z,2.10
2022-09-04T11:06:42.234Z,2.22
2022-09-04T11:09:49.728Z,2.50
2022-09-04T11:12:25.992Z,2.45
2022-09-04T11:15:21.659Z,2.55
2022-09-04T11:18:23.139Z,3.33
2022-09-04T11:21:27.143Z,2.72
2022-09-04T11:24:04.675Z,2.45
2022-09-04T11:27:12.386Z,3.40
2022-09-04T11:29:56.962Z,3.45
2022-09-04T11:32:44.977Z,2.78
2022-09-04T11:35:42.344Z,2.20
2022-09-04T11:38:18.259Z,2.33
2022-09-04T11:41:29.678Z,2.50
2022-09-04T11:44:29.656Z,2.53
2022-09-04T11:47:39.248Z,2.47
2022-09-04T11:50:19.819Z,2.70
2022-09-04T11:53:19.478Z,2.45
2022-09-04T11:55:58.444Z,2.58
2022-09-04T11:58:46.383Z,2.47
2022-09-04T12:01:23.280Z,3.08
2022-09-04T12:04:05.713Z,2.13
2022-09-04T12:06:51.096Z,2.47
2022-09-04T12:09:39.700Z,2.42
2022-09-04T12:12:35.485Z,2.53
2022-09-04T12:15:20.367Z,4.53
2022-09-04T12:18:08.329Z,5.85
2022-09-04T12:20:56.984Z,5.20
2022-09-04T12:23:47.686Z,4.20
2022-09-04T12:26:24.464Z,4.30
2022-09-04T12:29:02.304Z,2.97
2022-09-04T12:31:47.059Z,2.88
2022-09-04T12:34:31.439Z,3.30
2022-09-04T12:37:19.909Z,2.90
2022-09-04T12:40:10.248Z,2.50
2022-09-04T12:42:43.120Z,2.53
2022-09-04T12:45:15.448Z,2.75
2022-09-04T12:47:49.045Z,2.78
2022-09-04T12:50:28.017Z,3.30
2022-09-04T12:53:31.552Z,2.58
2022-09-04T12:56:05.643Z,2.08
2022-09-04T12:58:47.862Z,2.15
2022-09-04T13:01:19.312Z,2.28
2022-09-04T13:03:50.731Z,2.50
2022-09-04T13:06:23.805Z,2.40
2022-09-04T13:08:57.896Z,2.50
2022-09-04T13:11:33.522Z,2.42
2022-09-04T13:14:22.801Z,6.32
2022-09-04T13:16:55.106Z,2.55
2022-09-04T13:19:26.159Z,2.22
2022-09-04T13:22:19.860Z,2.25
2022-09-04T13:24:53.163Z,2.83
2022-09-04T13:27:30.969Z,5.10
2022-09-04T13:30:05.985Z,8.00
2022-09-04T13:32:57.143Z,4.38
2022-09-04T13:35:36.561Z,5.00
2022-09-04T13:38:19.856Z,3.47
2022-09-04T13:41:13.341Z,2.95
2022-09-04T13:44:00.550Z,4.40
2022-09-04T13:46:32.192Z,2.35
2022-09-04T13:49:03.464Z,2.70
2022-09-04T13:51:33.943Z,2.38
2022-09-04T13:54:05.031Z,2.17
2022-09-04T13:56:35.092Z,2.47
2022-09-04T13:59:08.445Z,2.50
2022-09-04T14:01:45.818Z,2.45
2022-09-04T14:04:15.170Z,2.15
2022-09-04T14:06:43.103Z,2.20
2022-09-04T14:09:10.946Z,2.20
2022-09-04T14:12:00.969Z,2.47
2022-09-04T14:14:45.835Z,3.75
2022-09-04T14:17:16.325Z,2.90
2022-09-04T14:19:49.479Z,6.88
2022-09-04T14:22:33.425Z,3.92
2022-09-04T14:25:06.401Z,3.15
2022-09-04T14:27:37.879Z,3.13
2022-09-04T14:30:08.056Z,2.63
2022-09-04T14:32:46.745Z,3.30
2022-09-04T14:35:18.601Z,3.13
2022-09-04T14:38:04.526Z,3.90
2022-09-04T14:40:34.230Z,4.07
2022-09-04T14:43:05.265Z,3.00
2022-09-04T14:45:51.863Z,2.42
2022-09-04T14:48:24.145Z,2.92
2022-09-04T14:50:53.628Z,2.60
2022-09-04T14:53:23.859Z,2.78
2022-09-04T14:56:18.446Z,2.80
2022-09-04T14:58:50.617Z,3.00
2022-09-04T15:01:20.145Z,3.17
2022-09-04T15:03:51.766Z,4.30
2022-09-04T15:06:24.430Z,3.95
2022-09-04T15:08:53.856Z,3.97
2022-09-04T15:11:31.640Z,3.50
2022-09-04T15:14:04.726Z,3.30
2022-09-04T15:16:44.182Z,3.33
2022-09-04T15:19:26.494Z,4.47
2022-09-04T15:21:57.487Z,3.33
2022-09-04T15:24:27.445Z,3.63
2022-09-04T15:26:59.957Z,3.55
2022-09-04T15:29:32.054Z,3.08
2022-09-04T15:32:00.583Z,3.08
2022-09-04T15:34:29.831Z,3.15
2022-09-04T15:37:09.618Z,3.08
2022-09-04T15:39:39.357Z,2.90
2022-09-04T15:42:08.432Z,3.60
2022-09-04T15:44:39.942Z,3.50
2022-09-04T15:47:16.898Z,3.90
2022-09-04T15:49:47.642Z,3.28
2022-09-04T15:52:26.547Z,3.25
2022-09-04T15:55:05.197Z,3.35
2022-09-04T15:57:36.156Z,42.42
2022-09-04T16:00:05.479Z,6.93
2022-09-04T16:02:43.917Z,4.05
2022-09-04T16:05:19.493Z,5.40
2022-09-04T16:07:54.627Z,3.60
2022-09-04T16:10:24.569Z,4.40
2022-09-04T16:12:53.523Z,3.38
2022-09-04T16:15:24.763Z,3.20
2022-09-04T16:17:54.445Z,3.65
2022-09-04T16:20:28.043Z,3.28
2022-09-04T16:22:58.215Z,3.30
2022-09-04T16:25:28.935Z,2.75
2022-09-04T16:27:59.820Z,3.28
2022-09-04T16:30:35.794Z,3.15
2022-09-04T16:33:03.742Z,2.67
2022-09-04T16:35:35.476Z,2.97
2022-09-04T16:38:06.916Z,2.67
2022-09-04T16:40:35.897Z,3.20
2022-09-04T16:43:09.551Z,2.80
2022-09-04T16:45:38.252Z,2.72
2022-09-04T16:48:21.889Z,3.33
2022-09-04T16:51:01.829Z,2.63
2022-09-04T16:53:51.623Z,2.60
2022-09-04T16:56:22.919Z,2.17
2022-09-04T16:58:54.556Z,2.28
2022-09-04T17:01:27.107Z,3.05
2022-09-04T17:04:12.737Z,2.67
2022-09-04T17:06:56.252Z,2.80
2022-09-04T17:09:27.177Z,2.70
2022-09-04T17:11:56.278Z,2.70
2022-09-04T17:14:26.007Z,2.30
2022-09-04T17:17:04.047Z,2.55
2022-09-04T17:19:44.672Z,2.60
2022-09-04T17:28:14.932Z,2.50
2022-09-04T17:28:56.162Z,2.58
2022-09-04T17:29:16.211Z,2.33
2022-09-04T17:31:28.374Z,2.00
2022-09-04T17:40:06.290Z,2.10
2022-09-04T17:40:36.995Z,2.45
2022-09-04T17:40:43.033Z,2.33
2022-09-04T17:42:25.705Z,2.20
2022-09-04T17:44:57.399Z,2.78
2022-09-04T17:47:29.738Z,2.30
2022-09-04T17:49:57.477Z,2.40
2022-09-04T17:52:26.842Z,2.10
2022-09-04T17:54:57.861Z,2.35
2022-09-04T17:57:31.451Z,2.13
2022-09-04T18:00:02.375Z,2.63
2022-09-04T18:02:37.450Z,2.10
2022-09-04T18:05:12.729Z,2.42
2022-09-04T18:08:07.694Z,2.42
2022-09-04T18:10:34.029Z,2.25
2022-09-04T18:13:36.997Z,2.25
2022-09-04T18:16:03.050Z,2.20
2022-09-04T18:18:38.913Z,2.33
2022-09-04T18:21:14.352Z,2.50
2022-09-04T18:23:51.960Z,1.90
2022-09-04T18:26:27.850Z,2.13
2022-09-04T18:32:01.851Z,2.25
2022-09-04T18:37:17.416Z,2.10
2022-09-04T18:37:22.081Z,2.50
2022-09-04T18:38:02.370Z,2.28
2022-09-04T18:42:10.652Z,2.50
2022-09-04T18:50:28.111Z,2.28
2022-09-04T18:50:29.295Z,2.30
2022-09-04T18:50:41.262Z,2.25
2022-09-04T18:51:58.213Z,2.33
2022-09-04T18:54:27.779Z,2.30
2022-09-04T18:56:56.472Z,1.85
2022-09-04T18:59:27.102Z,2.67
2022-09-04T19:02:00.847Z,2.08
2022-09-04T19:04:49.249Z,1.90
2022-09-04T19:07:27.302Z,2.20
2022-09-04T19:10:13.443Z,2.10
2022-09-04T19:12:47.981Z,2.10
2022-09-04T19:15:49.972Z,2.22
2022-09-04T19:18:26.467Z,2.13
2022-09-04T19:20:59.196Z,2.28
2022-09-04T19:23:30.964Z,2.35
2022-09-04T19:26:00.542Z,2.20
2022-09-04T19:28:29.396Z,2.35
2022-09-04T19:30:59.445Z,2.25
2022-09-04T19:33:31.904Z,2.22
2022-09-04T19:36:01.895Z,2.10
2022-09-04T19:45:55.600Z,2.20
2022-09-04T19:46:06.480Z,2.13
2022-09-04T19:46:16.441Z,2.20
2022-09-04T19:47:09.548Z,2.25
2022-09-04T19:53:17.922Z,2.13
2022-09-04T19:53:35.188Z,2.22
2022-09-04T19:55:40.667Z,2.08
2022-09-04T19:58:09.750Z,2.30
2022-09-04T20:00:43.629Z,2.30
2022-09-04T20:03:30.273Z,2.10
2022-09-04T20:06:05.706Z,2.40
2022-09-04T20:08:51.595Z,2.20
2022-09-04T20:11:34.778Z,2.17
2022-09-04T20:14:13.942Z,2.13
2022-09-04T20:16:48.202Z,2.08
2022-09-04T20:19:27.977Z,2.03
2022-09-04T20:21:58.704Z,2.35
2022-09-04T20:24:26.899Z,2.28
2022-09-04T20:26:57.504Z,2.50
2022-09-04T20:29:25.944Z,2.30
2022-09-04T20:31:54.859Z,2.10
2022-09-04T20:34:31.159Z,2.20
2022-09-04T20:37:11.193Z,2.15
2022-09-04T20:39:41.672Z,2.17
2022-09-04T20:42:12.468Z,2.60
2022-09-04T20:45:52.717Z,2.20
2022-09-04T20:52:43.478Z,2.22
2022-09-04T20:52:52.603Z,2.50
2022-09-04T20:53:21.464Z,2.20
2022-09-04T20:55:59.915Z,2.20
2022-09-04T21:03:08.924Z,2.35
2022-09-04T21:03:20.991Z,2.30
2022-09-04T21:04:42.635Z,2.50
2022-09-04T21:07:18.277Z,2.63
2022-09-04T21:09:55.496Z,2.30
2022-09-04T21:12:30.689Z,2.10
2022-09-04T21:15:04.099Z,2.22
2022-09-04T21:17:55.748Z,2.28
2022-09-04T21:20:30.677Z,2.10
2022-09-04T21:23:14.747Z,2.30
2022-09-04T21:25:48.404Z,2.47
2022-09-04T21:28:38.840Z,2.30
2022-09-04T21:31:26.126Z,2.20
2022-09-04T21:34:01.016Z,2.00
2022-09-04T21:36:30.997Z,2.10
2022-09-04T21:39:23.228Z,2.45
2022-09-04T21:41:57.831Z,2.15
2022-09-04T21:44:55.501Z,2.35
2022-09-04T21:47:37.584Z,2.38
2022-09-04T21:50:42.169Z,2.25
2022-09-04T21:53:52.482Z,2.10
2022-09-04T22:01:30.540Z,2.60
2022-09-04T22:02:41.907Z,2.25
2022-09-04T22:02:59.319Z,2.60
2022-09-04T22:05:31.447Z,2.70
2022-09-04T22:11:55.593Z,2.80
2022-09-04T22:13:35.128Z,2.65
2022-09-04T22:13:59.190Z,2.60
2022-09-04T22:16:54.271Z,2.83
2022-09-04T22:19:44.239Z,3.00
2022-09-04T22:22:23.312Z,2.72
2022-09-04T22:25:26.255Z,2.50
2022-09-04T22:28:34.021Z,3.00
2022-09-04T22:31:29.399Z,2.72
2022-09-04T22:34:15.476Z,3.05
2022-09-04T22:37:04.585Z,2.75
2022-09-04T22:39:47.262Z,2.60
2022-09-04T22:42:30.459Z,2.90
2022-09-04T22:45:07.144Z,2.92
2022-09-04T22:47:53.030Z,2.90
2022-09-04T22:50:36.237Z,2.90
2022-09-04T22:53:32.974Z,3.17
2022-09-04T22:56:24.275Z,3.40
2022-09-04T22:59:25.589Z,3.10
2022-09-04T23:02:14.179Z,3.35
2022-09-04T23:04:54.842Z,3.67
2022-09-04T23:12:59.944Z,3.63
2022-09-04T23:13:59.759Z,4.57
2022-09-04T23:14:02.833Z,4.20
2022-09-04T23:16:28.851Z,5.85
2022-09-04T23:23:41.550Z,5.88
2022-09-04T23:26:34.769Z,6.88
2022-09-04T23:26:42.694Z,7.70
2022-09-04T23:27:52.369Z,8.82
2022-09-04T23:30:25.101Z,9.95
2022-09-04T23:33:39.912Z,11.00
2022-09-04T23:36:28.404Z,13.00
2022-09-04T23:39:33.385Z,13.82
2022-09-04T23:42:07.910Z,16.35
2022-09-04T23:44:57.815Z,17.42
2022-09-04T23:47:49.401Z,17.80
2022-09-04T23:50:23.492Z,19.92
2022-09-04T23:52:59.701Z,19.63
2022-09-04T23:55:45.003Z,20.95
2022-09-04T23:58:47.781Z,21.15
